sensor_id;sensor_type;location;lat;lon;timestamp;P1;durP1;ratioP1;P2;durP2;ratioP2
44670;SDS011;48397;53.016;-2.260;2023-02-15T00:00:09;126.43;;;44.65;;
44670;SDS011;48397;53.016;-2.260;2023-02-15T00:02:39;119.87;;;44.17;;
44670;SDS011;48397;53.016;-2.260;2023-02-15T00:05:08;125.68;;;46.45;;
44670;SDS011;48397;53.016;-2.260;2023-02-15T00:07:36;108.83;;;43.40;;
44670;SDS011;48397;53.016;-2.260;2023-02-15T00:10:04;105.05;;;39.50;;
44670;SDS011;48397;53.016;-2.260;2023-02-15T00:12:32;93.57;;;37.00;;
44670;SDS011;48397;53.016;-2.260;2023-02-15T00:15:00;94.72;;;38.92;;
44670;SDS011;48397;53.016;-2.260;2023-02-15T00:17:28;80.70;;;37.25;;
44670;SDS011;48397;53.016;-2.260;2023-02-15T00:19:56;88.80;;;36.00;;
44670;SDS011;48397;53.016;-2.260;2023-02-15T00:22:24;85.53;;;36.60;;
44670;SDS011;48397;53.016;-2.260;2023-02-15T00:24:53;98.20;;;39.77;;
44670;SDS011;48397;53.016;-2.260;2023-02-15T00:27:20;103.25;;;40.88;;
44670;SDS011;48397;53.016;-2.260;2023-02-15T00:29:48;109.25;;;42.30;;
44670;SDS011;48397;53.016;-2.260;2023-02-15T00:32:16;90.40;;;36.67;;
44670;SDS011;48397;53.016;-2.260;2023-02-15T00:34:45;89.70;;;35.83;;
44670;SDS011;48397;53.016;-2.260;2023-02-15T00:37:13;73.72;;;31.60;;
44670;SDS011;48397;53.016;-2.260;2023-02-15T00:39:41;88.40;;;36.97;;
44670;SDS011;48397;53.016;-2.260;2023-02-15T00:42:09;91.50;;;35.33;;
44670;SDS011;48397;53.016;-2.260;2023-02-15T00:44:36;100.10;;;39.40;;
44670;SDS011;48397;53.016;-2.260;2023-02-15T00:47:04;100.03;;;39.35;;
44670;SDS011;48397;53.016;-2.260;2023-02-15T00:49:31;95.47;;;38.97;;
44670;SDS011;48397;53.016;-2.260;2023-02-15T00:54:27;105.05;;;39.38;;
44670;SDS011;48397;53.016;-2.260;2023-02-15T00:56:55;117.27;;;41.30;;
44670;SDS011;48397;53.016;-2.260;2023-02-15T00:59:23;110.60;;;41.33;;
44670;SDS011;48397;53.016;-2.260;2023-02-15T01:01:51;106.72;;;39.58;;
44670;SDS011;48397;53.016;-2.260;2023-02-15T01:04:19;99.82;;;40.42;;
44670;SDS011;48397;53.016;-2.260;2023-02-15T01:09:14;124.43;;;42.45;;
44670;SDS011;48397;53.016;-2.260;2023-02-15T01:11:42;147.82;;;46.65;;
44670;SDS011;48397;53.016;-2.260;2023-02-15T01:14:10;144.25;;;48.50;;
44670;SDS011;48397;53.016;-2.260;2023-02-15T01:16:38;160.30;;;49.63;;
44670;SDS011;48397;53.016;-2.260;2023-02-15T01:19:06;162.18;;;49.38;;
44670;SDS011;48397;53.016;-2.260;2023-02-15T01:21:33;167.48;;;50.75;;
44670;SDS011;48397;53.016;-2.260;2023-02-15T01:24:02;175.87;;;50.23;;
44670;SDS011;48397;53.016;-2.260;2023-02-15T01:26:30;162.98;;;45.65;;
44670;SDS011;48397;53.016;-2.260;2023-02-15T01:28:58;142.43;;;45.28;;
44670;SDS011;48397;53.016;-2.260;2023-02-15T01:31:26;162.02;;;46.88;;
44670;SDS011;48397;53.016;-2.260;2023-02-15T01:33:56;142.70;;;44.93;;
44670;SDS011;48397;53.016;-2.260;2023-02-15T01:36:24;163.10;;;47.47;;
44670;SDS011;48397;53.016;-2.260;2023-02-15T01:38:52;160.00;;;45.50;;
44670;SDS011;48397;53.016;-2.260;2023-02-15T01:41:19;165.98;;;49.80;;
44670;SDS011;48397;53.016;-2.260;2023-02-15T01:43:52;142.27;;;44.72;;
44670;SDS011;48397;53.016;-2.260;2023-02-15T01:46:26;154.23;;;46.33;;
44670;SDS011;48397;53.016;-2.260;2023-02-15T01:49:02;146.57;;;44.87;;
44670;SDS011;48397;53.016;-2.260;2023-02-15T01:51:35;142.90;;;46.42;;
44670;SDS011;48397;53.016;-2.260;2023-02-15T01:54:07;154.57;;;45.27;;
44670;SDS011;48397;53.016;-2.260;2023-02-15T01:56:42;140.67;;;44.27;;
44670;SDS011;48397;53.016;-2.260;2023-02-15T01:59:12;140.93;;;45.90;;
44670;SDS011;48397;53.016;-2.260;2023-02-15T02:01:44;139.87;;;44.27;;
44670;SDS011;48397;53.016;-2.260;2023-02-15T02:04:14;144.70;;;43.83;;
44670;SDS011;48397;53.016;-2.260;2023-02-15T02:06:51;132.07;;;41.07;;
44670;SDS011;48397;53.016;-2.260;2023-02-15T02:09:21;114.97;;;38.50;;
44670;SDS011;48397;53.016;-2.260;2023-02-15T02:14:16;110.85;;;40.53;;
44670;SDS011;48397;53.016;-2.260;2023-02-15T02:28:01;131.23;;;44.57;;
44670;SDS011;48397;53.016;-2.260;2023-02-15T02:33:32;131.30;;;43.07;;
44670;SDS011;48397;53.016;-2.260;2023-02-15T02:41:31;119.57;;;40.53;;
44670;SDS011;48397;53.016;-2.260;2023-02-15T02:44:12;122.23;;;41.70;;
44670;SDS011;48397;53.016;-2.260;2023-02-15T02:46:50;130.13;;;44.67;;
44670;SDS011;48397;53.016;-2.260;2023-02-15T02:54:59;80.93;;;32.50;;
44670;SDS011;48397;53.016;-2.260;2023-02-15T02:57:34;76.07;;;31.30;;
44670;SDS011;48397;53.016;-2.260;2023-02-15T03:00:04;86.13;;;32.87;;
44670;SDS011;48397;53.016;-2.260;2023-02-15T03:02:37;95.03;;;34.00;;
44670;SDS011;48397;53.016;-2.260;2023-02-15T03:05:09;91.97;;;34.27;;
44670;SDS011;48397;53.016;-2.260;2023-02-15T03:07:43;107.70;;;35.97;;
44670;SDS011;48397;53.016;-2.260;2023-02-15T03:10:16;105.00;;;36.53;;
44670;SDS011;48397;53.016;-2.260;2023-02-15T03:12:46;109.47;;;38.27;;
44670;SDS011;48397;53.016;-2.260;2023-02-15T03:15:21;101.78;;;37.95;;
44670;SDS011;48397;53.016;-2.260;2023-02-15T03:17:57;103.77;;;37.73;;
44670;SDS011;48397;53.016;-2.260;2023-02-15T03:20:31;130.20;;;42.30;;
44670;SDS011;48397;53.016;-2.260;2023-02-15T03:23:07;119.47;;;41.13;;
44670;SDS011;48397;53.016;-2.260;2023-02-15T03:25:44;124.00;;;40.17;;
44670;SDS011;48397;53.016;-2.260;2023-02-15T03:28:30;141.43;;;42.47;;
44670;SDS011;48397;53.016;-2.260;2023-02-15T03:31:03;133.67;;;42.93;;
44670;SDS011;48397;53.016;-2.260;2023-02-15T03:33:34;136.23;;;44.47;;
44670;SDS011;48397;53.016;-2.260;2023-02-15T03:38:36;127.50;;;42.57;;
44670;SDS011;48397;53.016;-2.260;2023-02-15T03:41:14;94.53;;;34.73;;
44670;SDS011;48397;53.016;-2.260;2023-02-15T03:46:32;79.73;;;32.03;;
44670;SDS011;48397;53.016;-2.260;2023-02-15T03:49:06;76.47;;;30.87;;
44670;SDS011;48397;53.016;-2.260;2023-02-15T03:51:38;73.77;;;29.27;;
44670;SDS011;48397;53.016;-2.260;2023-02-15T03:54:13;85.83;;;33.97;;
44670;SDS011;48397;53.016;-2.260;2023-02-15T03:57:07;98.83;;;38.47;;
44670;SDS011;48397;53.016;-2.260;2023-02-15T04:05:43;129.87;;;43.43;;
44670;SDS011;48397;53.016;-2.260;2023-02-15T04:08:11;149.23;;;46.47;;
44670;SDS011;48397;53.016;-2.260;2023-02-15T04:10:39;158.77;;;48.47;;
44670;SDS011;48397;53.016;-2.260;2023-02-15T04:13:20;163.17;;;50.40;;
44670;SDS011;48397;53.016;-2.260;2023-02-15T04:15:49;174.47;;;50.07;;
44670;SDS011;48397;53.016;-2.260;2023-02-15T04:18:37;178.53;;;52.13;;
44670;SDS011;48397;53.016;-2.260;2023-02-15T04:21:29;177.73;;;51.83;;
44670;SDS011;48397;53.016;-2.260;2023-02-15T04:24:16;177.40;;;50.95;;
44670;SDS011;48397;53.016;-2.260;2023-02-15T04:27:03;185.80;;;54.35;;
44670;SDS011;48397;53.016;-2.260;2023-02-15T04:29:32;192.37;;;55.10;;
44670;SDS011;48397;53.016;-2.260;2023-02-15T04:32:00;204.27;;;56.72;;
44670;SDS011;48397;53.016;-2.260;2023-02-15T04:34:29;187.33;;;51.03;;
44670;SDS011;48397;53.016;-2.260;2023-02-15T04:36:57;174.15;;;49.97;;
44670;SDS011;48397;53.016;-2.260;2023-02-15T04:39:25;171.35;;;49.33;;
44670;SDS011;48397;53.016;-2.260;2023-02-15T04:41:52;187.48;;;53.30;;
44670;SDS011;48397;53.016;-2.260;2023-02-15T04:44:20;169.07;;;48.70;;
44670;SDS011;48397;53.016;-2.260;2023-02-15T04:49:16;168.00;;;50.72;;
44670;SDS011;48397;53.016;-2.260;2023-02-15T04:51:43;172.73;;;50.10;;
44670;SDS011;48397;53.016;-2.260;2023-02-15T04:54:11;166.15;;;48.20;;
44670;SDS011;48397;53.016;-2.260;2023-02-15T04:56:39;151.27;;;46.58;;
44670;SDS011;48397;53.016;-2.260;2023-02-15T04:59:08;141.27;;;42.47;;
44670;SDS011;48397;53.016;-2.260;2023-02-15T05:01:37;153.50;;;46.87;;
44670;SDS011;48397;53.016;-2.260;2023-02-15T05:04:05;148.25;;;46.28;;
44670;SDS011;48397;53.016;-2.260;2023-02-15T05:06:33;135.17;;;42.30;;
44670;SDS011;48397;53.016;-2.260;2023-02-15T05:09:01;136.25;;;43.53;;
44670;SDS011;48397;53.016;-2.260;2023-02-15T05:13:56;132.98;;;46.42;;
44670;SDS011;48397;53.016;-2.260;2023-02-15T05:16:24;127.68;;;43.22;;
44670;SDS011;48397;53.016;-2.260;2023-02-15T05:18:52;115.77;;;40.97;;
44670;SDS011;48397;53.016;-2.260;2023-02-15T05:21:20;129.20;;;41.83;;
44670;SDS011;48397;53.016;-2.260;2023-02-15T05:23:48;125.77;;;43.13;;
44670;SDS011;48397;53.016;-2.260;2023-02-15T05:26:17;123.45;;;41.25;;
44670;SDS011;48397;53.016;-2.260;2023-02-15T05:29:05;107.40;;;37.80;;
44670;SDS011;48397;53.016;-2.260;2023-02-15T05:31:33;117.40;;;39.37;;
44670;SDS011;48397;53.016;-2.260;2023-02-15T05:34:02;114.27;;;37.03;;
44670;SDS011;48397;53.016;-2.260;2023-02-15T05:36:30;122.35;;;39.58;;
44670;SDS011;48397;53.016;-2.260;2023-02-15T05:38:58;116.10;;;39.67;;
44670;SDS011;48397;53.016;-2.260;2023-02-15T05:41:25;113.72;;;41.45;;
44670;SDS011;48397;53.016;-2.260;2023-02-15T05:43:54;120.50;;;42.25;;
44670;SDS011;48397;53.016;-2.260;2023-02-15T05:46:23;113.23;;;35.50;;
44670;SDS011;48397;53.016;-2.260;2023-02-15T05:48:51;119.15;;;41.70;;
44670;SDS011;48397;53.016;-2.260;2023-02-15T05:51:18;126.20;;;42.03;;
44670;SDS011;48397;53.016;-2.260;2023-02-15T05:53:46;115.68;;;41.97;;
44670;SDS011;48397;53.016;-2.260;2023-02-15T05:56:14;126.70;;;41.65;;
44670;SDS011;48397;53.016;-2.260;2023-02-15T05:58:41;110.57;;;40.97;;
44670;SDS011;48397;53.016;-2.260;2023-02-15T06:03:45;100.93;;;38.63;;
44670;SDS011;48397;53.016;-2.260;2023-02-15T06:06:13;96.40;;;37.00;;
44670;SDS011;48397;53.016;-2.260;2023-02-15T06:08:40;116.57;;;40.20;;
44670;SDS011;48397;53.016;-2.260;2023-02-15T06:11:08;110.55;;;41.08;;
44670;SDS011;48397;53.016;-2.260;2023-02-15T06:13:36;109.10;;;39.35;;
44670;SDS011;48397;53.016;-2.260;2023-02-15T06:16:05;111.00;;;38.20;;
44670;SDS011;48397;53.016;-2.260;2023-02-15T06:18:34;111.73;;;39.33;;
44670;SDS011;48397;53.016;-2.260;2023-02-15T06:21:01;113.07;;;39.92;;
44670;SDS011;48397;53.016;-2.260;2023-02-15T06:23:29;106.72;;;39.22;;
44670;SDS011;48397;53.016;-2.260;2023-02-15T06:25:57;113.80;;;40.10;;
44670;SDS011;48397;53.016;-2.260;2023-02-15T06:28:25;105.93;;;39.53;;
44670;SDS011;48397;53.016;-2.260;2023-02-15T06:30:52;109.57;;;40.33;;
44670;SDS011;48397;53.016;-2.260;2023-02-15T06:35:49;92.15;;;37.95;;
44670;SDS011;48397;53.016;-2.260;2023-02-15T06:38:16;85.68;;;33.47;;
44670;SDS011;48397;53.016;-2.260;2023-02-15T06:40:44;101.57;;;40.45;;
44670;SDS011;48397;53.016;-2.260;2023-02-15T06:43:12;97.75;;;38.55;;
44670;SDS011;48397;53.016;-2.260;2023-02-15T06:50:37;88.27;;;35.93;;
44670;SDS011;48397;53.016;-2.260;2023-02-15T06:53:04;89.83;;;36.10;;
44670;SDS011;48397;53.016;-2.260;2023-02-15T06:55:32;91.50;;;37.08;;
44670;SDS011;48397;53.016;-2.260;2023-02-15T06:58:00;96.20;;;37.45;;
44670;SDS011;48397;53.016;-2.260;2023-02-15T07:00:28;90.10;;;36.35;;
44670;SDS011;48397;53.016;-2.260;2023-02-15T07:02:56;102.55;;;37.63;;
44670;SDS011;48397;53.016;-2.260;2023-02-15T07:05:26;96.70;;;37.77;;
44670;SDS011;48397;53.016;-2.260;2023-02-15T07:07:58;101.30;;;37.17;;
44670;SDS011;48397;53.016;-2.260;2023-02-15T07:10:27;100.10;;;37.13;;
44670;SDS011;48397;53.016;-2.260;2023-02-15T07:17:51;96.30;;;38.15;;
44670;SDS011;48397;53.016;-2.260;2023-02-15T07:20:20;108.53;;;42.45;;
44670;SDS011;48397;53.016;-2.260;2023-02-15T07:22:50;117.20;;;41.37;;
44670;SDS011;48397;53.016;-2.260;2023-02-15T07:25:18;109.90;;;39.60;;
44670;SDS011;48397;53.016;-2.260;2023-02-15T07:27:46;114.80;;;40.63;;
44670;SDS011;48397;53.016;-2.260;2023-02-15T07:30:15;105.20;;;40.07;;
44670;SDS011;48397;53.016;-2.260;2023-02-15T07:32:44;114.13;;;41.07;;
44670;SDS011;48397;53.016;-2.260;2023-02-15T07:35:31;107.60;;;41.10;;
44670;SDS011;48397;53.016;-2.260;2023-02-15T07:38:00;97.63;;;40.93;;
44670;SDS011;48397;53.016;-2.260;2023-02-15T07:40:28;111.10;;;39.30;;
44670;SDS011;48397;53.016;-2.260;2023-02-15T07:42:57;111.22;;;41.15;;
44670;SDS011;48397;53.016;-2.260;2023-02-15T07:45:26;122.73;;;44.67;;
44670;SDS011;48397;53.016;-2.260;2023-02-15T07:47:54;106.55;;;39.25;;
44670;SDS011;48397;53.016;-2.260;2023-02-15T07:50:21;111.22;;;42.45;;
44670;SDS011;48397;53.016;-2.260;2023-02-15T07:52:50;111.10;;;40.53;;
44670;SDS011;48397;53.016;-2.260;2023-02-15T07:55:18;111.80;;;40.50;;
44670;SDS011;48397;53.016;-2.260;2023-02-15T07:57:46;110.15;;;41.45;;
44670;SDS011;48397;53.016;-2.260;2023-02-15T08:00:16;111.40;;;40.77;;
44670;SDS011;48397;53.016;-2.260;2023-02-15T08:02:48;119.47;;;42.97;;
44670;SDS011;48397;53.016;-2.260;2023-02-15T08:05:37;115.67;;;42.33;;
44670;SDS011;48397;53.016;-2.260;2023-02-15T08:08:05;126.35;;;46.58;;
44670;SDS011;48397;53.016;-2.260;2023-02-15T08:13:20;124.15;;;43.65;;
44670;SDS011;48397;53.016;-2.260;2023-02-15T08:15:49;135.85;;;46.97;;
44670;SDS011;48397;53.016;-2.260;2023-02-15T08:18:17;134.93;;;44.77;;
44670;SDS011;48397;53.016;-2.260;2023-02-15T08:20:51;131.07;;;45.97;;
44670;SDS011;48397;53.016;-2.260;2023-02-15T08:23:18;126.10;;;46.00;;
44670;SDS011;48397;53.016;-2.260;2023-02-15T08:25:46;128.02;;;46.00;;
44670;SDS011;48397;53.016;-2.260;2023-02-15T08:28:14;131.35;;;46.20;;
44670;SDS011;48397;53.016;-2.260;2023-02-15T08:30:41;135.85;;;47.20;;
44670;SDS011;48397;53.016;-2.260;2023-02-15T08:33:09;135.35;;;47.40;;
44670;SDS011;48397;53.016;-2.260;2023-02-15T08:35:37;122.20;;;45.22;;
44670;SDS011;48397;53.016;-2.260;2023-02-15T08:38:05;117.75;;;44.22;;
44670;SDS011;48397;53.016;-2.260;2023-02-15T08:40:32;110.18;;;42.85;;
44670;SDS011;48397;53.016;-2.260;2023-02-15T08:43:01;112.00;;;42.33;;
44670;SDS011;48397;53.016;-2.260;2023-02-15T08:45:29;121.18;;;45.83;;
44670;SDS011;48397;53.016;-2.260;2023-02-15T08:47:57;113.47;;;40.47;;
44670;SDS011;48397;53.016;-2.260;2023-02-15T08:50:24;105.05;;;40.42;;
44670;SDS011;48397;53.016;-2.260;2023-02-15T08:52:52;107.45;;;41.05;;
44670;SDS011;48397;53.016;-2.260;2023-02-15T08:55:20;105.95;;;39.92;;
44670;SDS011;48397;53.016;-2.260;2023-02-15T08:57:47;103.85;;;40.58;;
44670;SDS011;48397;53.016;-2.260;2023-02-15T09:00:15;105.38;;;40.72;;
44670;SDS011;48397;53.016;-2.260;2023-02-15T09:02:44;90.88;;;38.47;;
44670;SDS011;48397;53.016;-2.260;2023-02-15T09:05:11;100.95;;;39.03;;
44670;SDS011;48397;53.016;-2.260;2023-02-15T09:07:39;97.82;;;38.58;;
44670;SDS011;48397;53.016;-2.260;2023-02-15T09:10:07;102.20;;;39.88;;
44670;SDS011;48397;53.016;-2.260;2023-02-15T09:12:35;100.72;;;39.38;;
44670;SDS011;48397;53.016;-2.260;2023-02-15T09:15:03;97.65;;;39.58;;
44670;SDS011;48397;53.016;-2.260;2023-02-15T09:17:31;93.68;;;40.05;;
44670;SDS011;48397;53.016;-2.260;2023-02-15T09:19:58;96.25;;;39.33;;
44670;SDS011;48397;53.016;-2.260;2023-02-15T09:22:26;101.07;;;39.45;;
44670;SDS011;48397;53.016;-2.260;2023-02-15T09:24:54;89.88;;;38.33;;
44670;SDS011;48397;53.016;-2.260;2023-02-15T09:27:21;92.28;;;38.05;;
44670;SDS011;48397;53.016;-2.260;2023-02-15T09:29:49;97.95;;;39.47;;
44670;SDS011;48397;53.016;-2.260;2023-02-15T09:32:17;89.00;;;33.78;;
44670;SDS011;48397;53.016;-2.260;2023-02-15T09:34:44;85.72;;;35.03;;
44670;SDS011;48397;53.016;-2.260;2023-02-15T09:37:12;93.90;;;38.92;;
44670;SDS011;48397;53.016;-2.260;2023-02-15T09:39:41;96.10;;;38.03;;
44670;SDS011;48397;53.016;-2.260;2023-02-15T09:42:20;100.82;;;39.42;;
44670;SDS011;48397;53.016;-2.260;2023-02-15T09:53:32;86.82;;;36.22;;
44670;SDS011;48397;53.016;-2.260;2023-02-15T10:04:50;78.72;;;35.25;;
44670;SDS011;48397;53.016;-2.260;2023-02-15T10:10:47;74.07;;;32.28;;
44670;SDS011;48397;53.016;-2.260;2023-02-15T10:13:39;70.22;;;32.63;;
44670;SDS011;48397;53.016;-2.260;2023-02-15T10:16:42;73.55;;;31.75;;
44670;SDS011;48397;53.016;-2.260;2023-02-15T10:22:57;61.90;;;29.88;;
44670;SDS011;48397;53.016;-2.260;2023-02-15T10:31:25;70.95;;;30.10;;
44670;SDS011;48397;53.016;-2.260;2023-02-15T10:34:00;69.05;;;31.17;;
44670;SDS011;48397;53.016;-2.260;2023-02-15T10:39:08;63.10;;;29.00;;
44670;SDS011;48397;53.016;-2.260;2023-02-15T10:41:51;58.70;;;28.05;;
44670;SDS011;48397;53.016;-2.260;2023-02-15T10:44:57;53.47;;;24.25;;
44670;SDS011;48397;53.016;-2.260;2023-02-15T10:53:26;43.85;;;22.67;;
44670;SDS011;48397;53.016;-2.260;2023-02-15T10:56:23;48.10;;;22.42;;
44670;SDS011;48397;53.016;-2.260;2023-02-15T11:02:51;46.88;;;22.98;;
44670;SDS011;48397;53.016;-2.260;2023-02-15T11:08:22;42.78;;;21.30;;
44670;SDS011;48397;53.016;-2.260;2023-02-15T11:10:54;40.30;;;19.75;;
44670;SDS011;48397;53.016;-2.260;2023-02-15T11:13:29;47.47;;;21.95;;
44670;SDS011;48397;53.016;-2.260;2023-02-15T11:16:15;38.85;;;19.45;;
44670;SDS011;48397;53.016;-2.260;2023-02-15T11:18:51;40.63;;;19.42;;
44670;SDS011;48397;53.016;-2.260;2023-02-15T11:21:43;35.97;;;18.85;;
44670;SDS011;48397;53.016;-2.260;2023-02-15T11:24:20;41.22;;;19.17;;
44670;SDS011;48397;53.016;-2.260;2023-02-15T11:26:57;35.67;;;18.70;;
44670;SDS011;48397;53.016;-2.260;2023-02-15T11:29:34;38.83;;;19.40;;
44670;SDS011;48397;53.016;-2.260;2023-02-15T11:32:40;40.63;;;19.33;;
44670;SDS011;48397;53.016;-2.260;2023-02-15T11:40:36;38.50;;;19.47;;
44670;SDS011;48397;53.016;-2.260;2023-02-15T11:43:24;40.78;;;19.45;;
44670;SDS011;48397;53.016;-2.260;2023-02-15T11:46:00;35.30;;;16.30;;
44670;SDS011;48397;53.016;-2.260;2023-02-15T11:48:29;39.13;;;19.42;;
44670;SDS011;48397;53.016;-2.260;2023-02-15T11:50:59;37.25;;;17.90;;
44670;SDS011;48397;53.016;-2.260;2023-02-15T11:53:33;39.83;;;18.67;;
44670;SDS011;48397;53.016;-2.260;2023-02-15T11:56:03;36.80;;;19.52;;
44670;SDS011;48397;53.016;-2.260;2023-02-15T11:58:35;40.05;;;21.52;;
44670;SDS011;48397;53.016;-2.260;2023-02-15T12:04:38;37.60;;;19.92;;
44670;SDS011;48397;53.016;-2.260;2023-02-15T12:12:32;43.38;;;20.67;;
44670;SDS011;48397;53.016;-2.260;2023-02-15T12:15:04;42.97;;;20.67;;
44670;SDS011;48397;53.016;-2.260;2023-02-15T12:17:49;40.25;;;19.88;;
44670;SDS011;48397;53.016;-2.260;2023-02-15T12:23:12;40.90;;;20.25;;
44670;SDS011;48397;53.016;-2.260;2023-02-15T12:25:42;35.60;;;18.85;;
44670;SDS011;48397;53.016;-2.260;2023-02-15T12:28:34;42.25;;;20.98;;
44670;SDS011;48397;53.016;-2.260;2023-02-15T12:31:53;46.85;;;21.33;;
44670;SDS011;48397;53.016;-2.260;2023-02-15T12:33:59;38.20;;;20.02;;
44670;SDS011;48397;53.016;-2.260;2023-02-15T12:36:40;45.17;;;21.70;;
44670;SDS011;48397;53.016;-2.260;2023-02-15T12:39:18;49.20;;;21.35;;
44670;SDS011;48397;53.016;-2.260;2023-02-15T12:41:57;46.03;;;20.65;;
44670;SDS011;48397;53.016;-2.260;2023-02-15T12:44:32;45.67;;;21.55;;
44670;SDS011;48397;53.016;-2.260;2023-02-15T12:49:34;41.42;;;20.30;;
44670;SDS011;48397;53.016;-2.260;2023-02-15T12:52:22;41.92;;;19.75;;
44670;SDS011;48397;53.016;-2.260;2023-02-15T12:54:52;39.50;;;20.42;;
44670;SDS011;48397;53.016;-2.260;2023-02-15T12:57:21;45.58;;;19.90;;
44670;SDS011;48397;53.016;-2.260;2023-02-15T12:59:49;35.10;;;19.08;;
44670;SDS011;48397;53.016;-2.260;2023-02-15T13:04:53;35.42;;;18.60;;
44670;SDS011;48397;53.016;-2.260;2023-02-15T13:07:24;37.28;;;19.27;;
44670;SDS011;48397;53.016;-2.260;2023-02-15T13:09:57;39.28;;;18.98;;
44670;SDS011;48397;53.016;-2.260;2023-02-15T13:12:26;39.45;;;17.90;;
44670;SDS011;48397;53.016;-2.260;2023-02-15T13:14:59;37.50;;;18.77;;
44670;SDS011;48397;53.016;-2.260;2023-02-15T13:17:30;39.05;;;19.48;;
44670;SDS011;48397;53.016;-2.260;2023-02-15T13:20:02;39.47;;;19.65;;
44670;SDS011;48397;53.016;-2.260;2023-02-15T13:22:37;38.42;;;17.98;;
44670;SDS011;48397;53.016;-2.260;2023-02-15T13:25:22;37.72;;;17.92;;
44670;SDS011;48397;53.016;-2.260;2023-02-15T13:28:02;34.17;;;18.10;;
44670;SDS011;48397;53.016;-2.260;2023-02-15T13:30:32;35.08;;;19.30;;
44670;SDS011;48397;53.016;-2.260;2023-02-15T13:33:06;36.05;;;19.25;;
44670;SDS011;48397;53.016;-2.260;2023-02-15T13:38:54;36.45;;;18.45;;
44670;SDS011;48397;53.016;-2.260;2023-02-15T13:41:27;37.78;;;19.48;;
44670;SDS011;48397;53.016;-2.260;2023-02-15T13:47:24;36.55;;;18.20;;
44670;SDS011;48397;53.016;-2.260;2023-02-15T14:03:41;31.50;;;15.75;;
44670;SDS011;48397;53.016;-2.260;2023-02-15T14:13:09;29.70;;;14.45;;
44670;SDS011;48397;53.016;-2.260;2023-02-15T14:18:28;28.10;;;14.48;;
44670;SDS011;48397;53.016;-2.260;2023-02-15T14:21:27;31.30;;;14.10;;
44670;SDS011;48397;53.016;-2.260;2023-02-15T14:29:46;25.13;;;12.73;;
44670;SDS011;48397;53.016;-2.260;2023-02-15T14:32:21;27.98;;;13.27;;
44670;SDS011;48397;53.016;-2.260;2023-02-15T14:35:12;25.77;;;13.77;;
44670;SDS011;48397;53.016;-2.260;2023-02-15T14:37:47;26.88;;;13.43;;
44670;SDS011;48397;53.016;-2.260;2023-02-15T14:46:52;24.65;;;12.73;;
44670;SDS011;48397;53.016;-2.260;2023-02-15T14:49:27;26.00;;;13.35;;
44670;SDS011;48397;53.016;-2.260;2023-02-15T14:52:00;24.50;;;10.85;;
44670;SDS011;48397;53.016;-2.260;2023-02-15T15:05:11;14.90;;;8.45;;
44670;SDS011;48397;53.016;-2.260;2023-02-15T15:07:55;14.02;;;7.97;;
44670;SDS011;48397;53.016;-2.260;2023-02-15T15:12:53;16.88;;;8.68;;
44670;SDS011;48397;53.016;-2.260;2023-02-15T15:18:01;10.82;;;5.57;;
44670;SDS011;48397;53.016;-2.260;2023-02-15T15:50:33;3.22;;;1.25;;
44670;SDS011;48397;53.016;-2.260;2023-02-15T15:55:30;2.35;;;1.00;;
44670;SDS011;48397;53.016;-2.260;2023-02-15T15:58:02;1.17;;;0.93;;
44670;SDS011;48397;53.016;-2.260;2023-02-15T16:00:40;3.60;;;1.55;;
44670;SDS011;48397;53.016;-2.260;2023-02-15T16:03:15;1.77;;;0.80;;
44670;SDS011;48397;53.016;-2.260;2023-02-15T16:05:53;2.03;;;0.77;;
44670;SDS011;48397;53.016;-2.260;2023-02-15T16:08:29;1.38;;;0.80;;
44670;SDS011;48397;53.016;-2.260;2023-02-15T16:11:19;1.08;;;0.70;;
44670;SDS011;48397;53.016;-2.260;2023-02-15T16:13:51;1.73;;;0.82;;
44670;SDS011;48397;53.016;-2.260;2023-02-15T16:16:27;2.63;;;1.00;;
44670;SDS011;48397;53.016;-2.260;2023-02-15T16:18:56;1.05;;;0.70;;
44670;SDS011;48397;53.016;-2.260;2023-02-15T16:21:27;1.65;;;0.93;;
44670;SDS011;48397;53.016;-2.260;2023-02-15T16:24:02;3.10;;;1.08;;
44670;SDS011;48397;53.016;-2.260;2023-02-15T16:29:16;1.08;;;0.70;;
44670;SDS011;48397;53.016;-2.260;2023-02-15T16:32:01;3.45;;;1.10;;
44670;SDS011;48397;53.016;-2.260;2023-02-15T16:34:31;1.95;;;0.82;;
44670;SDS011;48397;53.016;-2.260;2023-02-15T16:37:16;1.48;;;0.82;;
44670;SDS011;48397;53.016;-2.260;2023-02-15T16:39:45;1.65;;;0.90;;
44670;SDS011;48397;53.016;-2.260;2023-02-15T16:42:15;1.35;;;0.80;;
44670;SDS011;48397;53.016;-2.260;2023-02-15T16:44:45;1.63;;;0.90;;
44670;SDS011;48397;53.016;-2.260;2023-02-15T16:47:20;1.50;;;0.80;;
44670;SDS011;48397;53.016;-2.260;2023-02-15T16:49:52;2.80;;;0.85;;
44670;SDS011;48397;53.016;-2.260;2023-02-15T16:52:23;5.68;;;0.90;;
44670;SDS011;48397;53.016;-2.260;2023-02-15T16:54:56;3.40;;;0.68;;
44670;SDS011;48397;53.016;-2.260;2023-02-15T16:57:32;3.20;;;1.25;;
44670;SDS011;48397;53.016;-2.260;2023-02-15T17:00:06;2.58;;;0.90;;
44670;SDS011;48397;53.016;-2.260;2023-02-15T17:05:45;1.83;;;0.80;;
44670;SDS011;48397;53.016;-2.260;2023-02-15T17:08:25;1.70;;;0.80;;
44670;SDS011;48397;53.016;-2.260;2023-02-15T17:13:27;1.38;;;0.75;;
44670;SDS011;48397;53.016;-2.260;2023-02-15T17:18:30;2.30;;;0.90;;
44670;SDS011;48397;53.016;-2.260;2023-02-15T17:21:00;7.50;;;1.33;;
44670;SDS011;48397;53.016;-2.260;2023-02-15T17:23:47;1.55;;;0.80;;
44670;SDS011;48397;53.016;-2.260;2023-02-15T17:26:23;16.02;;;1.50;;
44670;SDS011;48397;53.016;-2.260;2023-02-15T17:28:54;1.77;;;0.93;;
44670;SDS011;48397;53.016;-2.260;2023-02-15T17:31:33;6.35;;;1.13;;
44670;SDS011;48397;53.016;-2.260;2023-02-15T17:34:04;2.75;;;0.90;;
44670;SDS011;48397;53.016;-2.260;2023-02-15T17:36:31;2.80;;;0.90;;
44670;SDS011;48397;53.016;-2.260;2023-02-15T17:39:01;2.03;;;0.93;;
44670;SDS011;48397;53.016;-2.260;2023-02-15T17:41:32;1.73;;;1.00;;
44670;SDS011;48397;53.016;-2.260;2023-02-15T17:44:01;4.22;;;1.02;;
44670;SDS011;48397;53.016;-2.260;2023-02-15T17:46:34;2.20;;;1.30;;
44670;SDS011;48397;53.016;-2.260;2023-02-15T17:49:04;2.25;;;1.30;;
44670;SDS011;48397;53.016;-2.260;2023-02-15T17:54:02;4.38;;;1.90;;
44670;SDS011;48397;53.016;-2.260;2023-02-15T17:56:48;2.95;;;1.88;;
44670;SDS011;48397;53.016;-2.260;2023-02-15T17:59:16;4.60;;;1.70;;
44670;SDS011;48397;53.016;-2.260;2023-02-15T18:01:45;3.28;;;2.20;;
44670;SDS011;48397;53.016;-2.260;2023-02-15T18:04:34;2.30;;;1.63;;
44670;SDS011;48397;53.016;-2.260;2023-02-15T18:07:21;2.70;;;1.60;;
44670;SDS011;48397;53.016;-2.260;2023-02-15T18:10:14;4.22;;;1.83;;
44670;SDS011;48397;53.016;-2.260;2023-02-15T18:13:02;5.45;;;2.70;;
44670;SDS011;48397;53.016;-2.260;2023-02-15T18:15:30;6.40;;;2.90;;
44670;SDS011;48397;53.016;-2.260;2023-02-15T18:17:58;7.10;;;3.42;;
44670;SDS011;48397;53.016;-2.260;2023-02-15T18:20:33;7.50;;;3.28;;
44670;SDS011;48397;53.016;-2.260;2023-02-15T18:23:03;7.03;;;4.00;;
44670;SDS011;48397;53.016;-2.260;2023-02-15T18:25:31;7.63;;;3.30;;
44670;SDS011;48397;53.016;-2.260;2023-02-15T18:27:59;5.32;;;3.15;;
44670;SDS011;48397;53.016;-2.260;2023-02-15T18:30:27;4.82;;;2.63;;
44670;SDS011;48397;53.016;-2.260;2023-02-15T18:32:55;8.52;;;3.17;;
44670;SDS011;48397;53.016;-2.260;2023-02-15T18:35:25;7.25;;;3.10;;